sensor_id;sensor_type;location;lat;lon;timestamp;P1;durP1;ratioP1;P2;durP2;ratioP2
42964;SDS011;28604;51.204;22.552;2023-07-29T00:00:57;4.70;;;1.30;;
42964;SDS011;28604;51.204;22.552;2023-07-29T00:03:26;6.18;;;1.50;;
42964;SDS011;28604;51.204;22.552;2023-07-29T00:05:52;3.67;;;1.02;;
42964;SDS011;28604;51.204;22.552;2023-07-29T00:08:18;5.93;;;1.35;;
42964;SDS011;28604;51.204;22.552;2023-07-29T00:10:44;5.40;;;1.30;;
42964;SDS011;28604;51.204;22.552;2023-07-29T00:13:10;4.00;;;1.50;;
42964;SDS011;28604;51.204;22.552;2023-07-29T00:15:37;6.97;;;1.17;;
42964;SDS011;28604;51.204;22.552;2023-07-29T00:18:02;6.63;;;1.00;;
42964;SDS011;28604;51.204;22.552;2023-07-29T00:20:28;3.58;;;1.33;;
42964;SDS011;28604;51.204;22.552;2023-07-29T00:22:54;6.10;;;1.63;;
42964;SDS011;28604;51.204;22.552;2023-07-29T00:25:21;9.45;;;1.63;;
42964;SDS011;28604;51.204;22.552;2023-07-29T00:27:47;3.88;;;1.52;;
42964;SDS011;28604;51.204;22.552;2023-07-29T00:30:13;11.40;;;1.40;;
42964;SDS011;28604;51.204;22.552;2023-07-29T00:32:39;6.82;;;1.17;;
42964;SDS011;28604;51.204;22.552;2023-07-29T00:35:05;5.05;;;1.65;;
42964;SDS011;28604;51.204;22.552;2023-07-29T00:37:31;5.68;;;2.25;;
42964;SDS011;28604;51.204;22.552;2023-07-29T00:39:57;11.45;;;1.58;;
42964;SDS011;28604;51.204;22.552;2023-07-29T00:42:23;7.32;;;1.33;;
42964;SDS011;28604;51.204;22.552;2023-07-29T00:44:50;6.88;;;1.30;;
42964;SDS011;28604;51.204;22.552;2023-07-29T00:47:16;8.45;;;1.63;;
42964;SDS011;28604;51.204;22.552;2023-07-29T00:49:42;6.30;;;1.50;;
42964;SDS011;28604;51.204;22.552;2023-07-29T00:52:09;12.05;;;1.67;;
42964;SDS011;28604;51.204;22.552;2023-07-29T00:54:40;8.10;;;1.63;;
42964;SDS011;28604;51.204;22.552;2023-07-29T00:57:10;12.85;;;1.63;;
42964;SDS011;28604;51.204;22.552;2023-07-29T00:59:39;3.25;;;1.48;;
42964;SDS011;28604;51.204;22.552;2023-07-29T01:02:05;4.57;;;1.30;;
42964;SDS011;28604;51.204;22.552;2023-07-29T01:04:32;5.30;;;1.40;;
42964;SDS011;28604;51.204;22.552;2023-07-29T01:06:59;14.13;;;1.30;;
42964;SDS011;28604;51.204;22.552;2023-07-29T01:09:55;10.63;;;1.90;;
42964;SDS011;28604;51.204;22.552;2023-07-29T01:18:05;17.80;;;2.20;;
42964;SDS011;28604;51.204;22.552;2023-07-29T01:20:37;5.90;;;1.63;;
42964;SDS011;28604;51.204;22.552;2023-07-29T01:23:08;1.98;;;1.52;;
42964;SDS011;28604;51.204;22.552;2023-07-29T01:25:35;10.90;;;1.80;;
42964;SDS011;28604;51.204;22.552;2023-07-29T01:28:00;16.17;;;2.20;;
42964;SDS011;28604;51.204;22.552;2023-07-29T01:30:33;10.35;;;2.00;;
42964;SDS011;28604;51.204;22.552;2023-07-29T01:33:06;2.97;;;1.60;;
42964;SDS011;28604;51.204;22.552;2023-07-29T01:38:10;5.45;;;1.40;;
42964;SDS011;28604;51.204;22.552;2023-07-29T01:40:42;8.88;;;1.63;;
42964;SDS011;28604;51.204;22.552;2023-07-29T01:43:09;5.90;;;1.60;;
42964;SDS011;28604;51.204;22.552;2023-07-29T01:45:36;7.55;;;1.67;;
42964;SDS011;28604;51.204;22.552;2023-07-29T01:48:04;6.05;;;2.08;;
42964;SDS011;28604;51.204;22.552;2023-07-29T01:50:30;5.80;;;1.60;;
42964;SDS011;28604;51.204;22.552;2023-07-29T01:52:57;7.28;;;1.50;;
42964;SDS011;28604;51.204;22.552;2023-07-29T01:55:24;2.30;;;1.58;;
42964;SDS011;28604;51.204;22.552;2023-07-29T01:57:50;3.70;;;1.70;;
42964;SDS011;28604;51.204;22.552;2023-07-29T02:00:20;5.35;;;1.98;;
42964;SDS011;28604;51.204;22.552;2023-07-29T02:02:46;1.98;;;1.50;;
42964;SDS011;28604;51.204;22.552;2023-07-29T02:05:12;2.35;;;1.60;;
42964;SDS011;28604;51.204;22.552;2023-07-29T02:07:39;4.18;;;2.03;;
42964;SDS011;28604;51.204;22.552;2023-07-29T02:10:05;3.13;;;1.88;;
42964;SDS011;28604;51.204;22.552;2023-07-29T02:12:31;1.48;;;1.38;;
42964;SDS011;28604;51.204;22.552;2023-07-29T02:14:57;6.85;;;2.17;;
42964;SDS011;28604;51.204;22.552;2023-07-29T02:17:23;5.70;;;1.77;;
42964;SDS011;28604;51.204;22.552;2023-07-29T02:19:49;8.05;;;2.83;;
42964;SDS011;28604;51.204;22.552;2023-07-29T02:22:16;2.40;;;1.73;;
42964;SDS011;28604;51.204;22.552;2023-07-29T02:24:43;5.85;;;2.13;;
42964;SDS011;28604;51.204;22.552;2023-07-29T02:27:10;9.15;;;2.03;;
42964;SDS011;28604;51.204;22.552;2023-07-29T02:29:37;4.00;;;2.00;;
42964;SDS011;28604;51.204;22.552;2023-07-29T02:32:02;5.57;;;2.15;;
42964;SDS011;28604;51.204;22.552;2023-07-29T02:34:29;2.05;;;1.85;;
42964;SDS011;28604;51.204;22.552;2023-07-29T02:36:55;4.22;;;2.10;;
42964;SDS011;28604;51.204;22.552;2023-07-29T02:39:21;5.20;;;2.53;;
42964;SDS011;28604;51.204;22.552;2023-07-29T02:41:49;2.42;;;1.67;;
42964;SDS011;28604;51.204;22.552;2023-07-29T02:44:15;2.17;;;1.40;;
42964;SDS011;28604;51.204;22.552;2023-07-29T02:46:41;2.97;;;1.67;;
42964;SDS011;28604;51.204;22.552;2023-07-29T02:49:07;1.83;;;1.77;;
42964;SDS011;28604;51.204;22.552;2023-07-29T02:51:33;9.65;;;1.60;;
42964;SDS011;28604;51.204;22.552;2023-07-29T02:53:59;1.60;;;1.50;;
42964;SDS011;28604;51.204;22.552;2023-07-29T02:56:25;5.50;;;2.42;;
42964;SDS011;28604;51.204;22.552;2023-07-29T02:58:51;2.50;;;1.92;;
42964;SDS011;28604;51.204;22.552;2023-07-29T03:01:17;6.85;;;1.73;;
42964;SDS011;28604;51.204;22.552;2023-07-29T03:03:43;13.90;;;2.33;;
42964;SDS011;28604;51.204;22.552;2023-07-29T03:06:10;6.00;;;2.22;;
42964;SDS011;28604;51.204;22.552;2023-07-29T03:08:38;6.22;;;2.50;;
42964;SDS011;28604;51.204;22.552;2023-07-29T03:11:08;12.23;;;3.05;;
42964;SDS011;28604;51.204;22.552;2023-07-29T03:13:36;3.30;;;2.38;;
42964;SDS011;28604;51.204;22.552;2023-07-29T03:16:09;3.88;;;2.15;;
42964;SDS011;28604;51.204;22.552;2023-07-29T03:18:38;3.75;;;2.35;;
42964;SDS011;28604;51.204;22.552;2023-07-29T03:21:04;11.00;;;2.85;;
42964;SDS011;28604;51.204;22.552;2023-07-29T03:23:31;6.00;;;2.30;;
42964;SDS011;28604;51.204;22.552;2023-07-29T03:25:58;2.97;;;2.28;;
42964;SDS011;28604;51.204;22.552;2023-07-29T03:28:25;5.18;;;1.98;;
42964;SDS011;28604;51.204;22.552;2023-07-29T03:30:55;8.27;;;2.22;;
42964;SDS011;28604;51.204;22.552;2023-07-29T03:33:22;7.53;;;3.10;;
42964;SDS011;28604;51.204;22.552;2023-07-29T03:35:48;2.25;;;2.20;;
42964;SDS011;28604;51.204;22.552;2023-07-29T03:38:14;7.18;;;2.08;;
42964;SDS011;28604;51.204;22.552;2023-07-29T03:40:40;8.38;;;2.05;;
42964;SDS011;28604;51.204;22.552;2023-07-29T03:43:07;10.27;;;2.70;;
42964;SDS011;28604;51.204;22.552;2023-07-29T03:45:34;7.60;;;2.40;;
42964;SDS011;28604;51.204;22.552;2023-07-29T03:48:02;6.13;;;2.42;;
42964;SDS011;28604;51.204;22.552;2023-07-29T03:50:28;2.75;;;2.47;;
42964;SDS011;28604;51.204;22.552;2023-07-29T03:52:55;11.52;;;2.90;;
42964;SDS011;28604;51.204;22.552;2023-07-29T03:55:21;4.75;;;2.58;;
42964;SDS011;28604;51.204;22.552;2023-07-29T03:57:48;8.38;;;2.60;;
42964;SDS011;28604;51.204;22.552;2023-07-29T04:00:13;6.32;;;2.83;;
42964;SDS011;28604;51.204;22.552;2023-07-29T04:02:42;9.30;;;2.30;;
42964;SDS011;28604;51.204;22.552;2023-07-29T04:05:11;7.25;;;2.95;;
42964;SDS011;28604;51.204;22.552;2023-07-29T04:07:37;13.43;;;3.60;;
42964;SDS011;28604;51.204;22.552;2023-07-29T04:10:03;7.85;;;2.60;;
42964;SDS011;28604;51.204;22.552;2023-07-29T04:12:30;8.98;;;2.78;;
42964;SDS011;28604;51.204;22.552;2023-07-29T04:14:56;6.78;;;3.08;;
42964;SDS011;28604;51.204;22.552;2023-07-29T04:17:22;4.75;;;2.92;;
42964;SDS011;28604;51.204;22.552;2023-07-29T04:19:48;11.85;;;2.90;;
42964;SDS011;28604;51.204;22.552;2023-07-29T04:22:15;10.65;;;3.15;;
42964;SDS011;28604;51.204;22.552;2023-07-29T04:24:41;6.63;;;3.00;;
42964;SDS011;28604;51.204;22.552;2023-07-29T04:27:08;9.18;;;2.90;;
42964;SDS011;28604;51.204;22.552;2023-07-29T04:29:33;5.45;;;2.40;;
42964;SDS011;28604;51.204;22.552;2023-07-29T04:32:04;5.07;;;2.67;;
42964;SDS011;28604;51.204;22.552;2023-07-29T04:34:31;12.27;;;3.30;;
42964;SDS011;28604;51.204;22.552;2023-07-29T04:36:57;2.38;;;2.08;;
42964;SDS011;28604;51.204;22.552;2023-07-29T04:39:23;11.32;;;3.20;;
42964;SDS011;28604;51.204;22.552;2023-07-29T04:41:49;3.28;;;2.15;;
42964;SDS011;28604;51.204;22.552;2023-07-29T04:44:15;8.88;;;2.53;;
42964;SDS011;28604;51.204;22.552;2023-07-29T04:46:42;6.68;;;3.00;;
42964;SDS011;28604;51.204;22.552;2023-07-29T04:49:08;9.45;;;3.25;;
42964;SDS011;28604;51.204;22.552;2023-07-29T04:51:34;5.25;;;2.88;;
42964;SDS011;28604;51.204;22.552;2023-07-29T04:54:00;12.18;;;3.13;;
42964;SDS011;28604;51.204;22.552;2023-07-29T04:56:26;11.32;;;4.25;;
42964;SDS011;28604;51.204;22.552;2023-07-29T04:58:52;9.20;;;3.10;;
42964;SDS011;28604;51.204;22.552;2023-07-29T05:01:18;3.90;;;3.13;;
42964;SDS011;28604;51.204;22.552;2023-07-29T05:03:44;8.88;;;3.42;;
42964;SDS011;28604;51.204;22.552;2023-07-29T05:06:12;9.65;;;4.05;;
42964;SDS011;28604;51.204;22.552;2023-07-29T05:08:37;8.13;;;3.67;;
42964;SDS011;28604;51.204;22.552;2023-07-29T05:11:04;9.10;;;3.90;;
42964;SDS011;28604;51.204;22.552;2023-07-29T05:13:29;15.07;;;4.55;;
42964;SDS011;28604;51.204;22.552;2023-07-29T05:15:56;10.48;;;4.65;;
42964;SDS011;28604;51.204;22.552;2023-07-29T05:18:21;14.73;;;6.38;;
42964;SDS011;28604;51.204;22.552;2023-07-29T05:20:49;9.38;;;5.07;;
42964;SDS011;28604;51.204;22.552;2023-07-29T05:23:15;9.63;;;5.95;;
42964;SDS011;28604;51.204;22.552;2023-07-29T05:25:41;10.30;;;6.20;;
42964;SDS011;28604;51.204;22.552;2023-07-29T05:28:07;7.88;;;7.15;;
42964;SDS011;28604;51.204;22.552;2023-07-29T05:30:33;14.25;;;7.93;;
42964;SDS011;28604;51.204;22.552;2023-07-29T05:33:03;12.10;;;8.60;;
42964;SDS011;28604;51.204;22.552;2023-07-29T05:35:39;8.25;;;6.90;;
42964;SDS011;28604;51.204;22.552;2023-07-29T05:38:06;12.65;;;9.82;;
42964;SDS011;28604;51.204;22.552;2023-07-29T05:40:33;13.90;;;8.50;;
42964;SDS011;28604;51.204;22.552;2023-07-29T05:42:59;16.10;;;9.70;;
42964;SDS011;28604;51.204;22.552;2023-07-29T05:45:25;18.67;;;12.25;;
42964;SDS011;28604;51.204;22.552;2023-07-29T05:47:51;21.77;;;10.90;;
42964;SDS011;28604;51.204;22.552;2023-07-29T05:50:17;12.73;;;11.23;;
42964;SDS011;28604;51.204;22.552;2023-07-29T05:52:43;18.23;;;14.27;;
42964;SDS011;28604;51.204;22.552;2023-07-29T05:55:10;20.88;;;15.13;;
42964;SDS011;28604;51.204;22.552;2023-07-29T05:57:36;16.85;;;15.07;;
42964;SDS011;28604;51.204;22.552;2023-07-29T06:00:02;17.17;;;15.02;;
42964;SDS011;28604;51.204;22.552;2023-07-29T06:02:38;21.60;;;16.33;;
42964;SDS011;28604;51.204;22.552;2023-07-29T06:05:07;19.42;;;15.45;;
42964;SDS011;28604;51.204;22.552;2023-07-29T06:07:33;19.60;;;15.90;;
42964;SDS011;28604;51.204;22.552;2023-07-29T06:09:59;18.27;;;16.23;;
42964;SDS011;28604;51.204;22.552;2023-07-29T06:12:26;18.85;;;16.08;;
42964;SDS011;28604;51.204;22.552;2023-07-29T06:14:52;17.55;;;15.18;;
42964;SDS011;28604;51.204;22.552;2023-07-29T06:17:18;17.75;;;15.68;;
42964;SDS011;28604;51.204;22.552;2023-07-29T06:19:44;16.70;;;14.98;;
42964;SDS011;28604;51.204;22.552;2023-07-29T06:22:10;16.15;;;14.63;;
42964;SDS011;28604;51.204;22.552;2023-07-29T06:24:36;17.27;;;15.40;;
42964;SDS011;28604;51.204;22.552;2023-07-29T06:27:02;23.70;;;16.70;;
42964;SDS011;28604;51.204;22.552;2023-07-29T06:29:28;19.65;;;16.40;;
42964;SDS011;28604;51.204;22.552;2023-07-29T06:31:54;18.83;;;14.85;;
42964;SDS011;28604;51.204;22.552;2023-07-29T06:34:20;13.38;;;12.07;;
42964;SDS011;28604;51.204;22.552;2023-07-29T06:36:46;14.38;;;12.93;;
42964;SDS011;28604;51.204;22.552;2023-07-29T06:39:13;18.85;;;12.02;;
42964;SDS011;28604;51.204;22.552;2023-07-29T06:41:38;15.73;;;12.90;;
42964;SDS011;28604;51.204;22.552;2023-07-29T06:44:04;14.55;;;11.70;;
42964;SDS011;28604;51.204;22.552;2023-07-29T06:46:30;14.23;;;12.80;;
42964;SDS011;28604;51.204;22.552;2023-07-29T06:48:57;14.98;;;12.00;;
42964;SDS011;28604;51.204;22.552;2023-07-29T06:51:22;14.98;;;12.48;;
42964;SDS011;28604;51.204;22.552;2023-07-29T06:53:49;16.52;;;12.55;;
42964;SDS011;28604;51.204;22.552;2023-07-29T06:56:15;15.93;;;12.88;;
42964;SDS011;28604;51.204;22.552;2023-07-29T06:58:41;15.23;;;12.50;;
42964;SDS011;28604;51.204;22.552;2023-07-29T07:01:07;13.27;;;11.98;;
42964;SDS011;28604;51.204;22.552;2023-07-29T07:03:33;15.13;;;12.32;;
42964;SDS011;28604;51.204;22.552;2023-07-29T07:05:58;17.65;;;12.95;;
42964;SDS011;28604;51.204;22.552;2023-07-29T07:08:25;16.42;;;13.20;;
42964;SDS011;28604;51.204;22.552;2023-07-29T07:10:50;14.38;;;12.90;;
42964;SDS011;28604;51.204;22.552;2023-07-29T07:13:16;14.68;;;12.25;;
42964;SDS011;28604;51.204;22.552;2023-07-29T07:15:42;13.75;;;12.02;;
42964;SDS011;28604;51.204;22.552;2023-07-29T07:18:08;13.35;;;11.63;;
42964;SDS011;28604;51.204;22.552;2023-07-29T07:20:34;18.63;;;12.32;;
42964;SDS011;28604;51.204;22.552;2023-07-29T07:23:00;14.07;;;11.32;;
42964;SDS011;28604;51.204;22.552;2023-07-29T07:25:26;14.90;;;12.57;;
42964;SDS011;28604;51.204;22.552;2023-07-29T07:27:52;13.20;;;11.40;;
42964;SDS011;28604;51.204;22.552;2023-07-29T07:30:18;11.07;;;10.02;;
42964;SDS011;28604;51.204;22.552;2023-07-29T07:32:44;12.63;;;10.65;;
42964;SDS011;28604;51.204;22.552;2023-07-29T07:35:10;12.07;;;10.20;;
42964;SDS011;28604;51.204;22.552;2023-07-29T07:37:36;12.18;;;9.85;;
42964;SDS011;28604;51.204;22.552;2023-07-29T07:40:02;9.90;;;8.90;;
42964;SDS011;28604;51.204;22.552;2023-07-29T07:42:29;8.30;;;7.50;;
42964;SDS011;28604;51.204;22.552;2023-07-29T07:44:54;7.68;;;6.65;;
42964;SDS011;28604;51.204;22.552;2023-07-29T07:47:20;7.68;;;6.15;;
42964;SDS011;28604;51.204;22.552;2023-07-29T07:49:46;7.95;;;7.13;;
42964;SDS011;28604;51.204;22.552;2023-07-29T07:52:14;9.50;;;7.82;;
42964;SDS011;28604;51.204;22.552;2023-07-29T07:54:40;9.40;;;8.55;;
42964;SDS011;28604;51.204;22.552;2023-07-29T07:57:06;9.73;;;8.82;;
42964;SDS011;28604;51.204;22.552;2023-07-29T07:59:32;9.63;;;8.73;;
42964;SDS011;28604;51.204;22.552;2023-07-29T08:01:58;10.65;;;6.05;;
42964;SDS011;28604;51.204;22.552;2023-07-29T08:04:24;5.97;;;5.47;;
42964;SDS011;28604;51.204;22.552;2023-07-29T08:06:50;6.72;;;5.63;;
42964;SDS011;28604;51.204;22.552;2023-07-29T08:09:15;7.22;;;6.53;;
42964;SDS011;28604;51.204;22.552;2023-07-29T08:11:41;8.18;;;6.90;;
42964;SDS011;28604;51.204;22.552;2023-07-29T08:14:07;7.13;;;6.22;;
42964;SDS011;28604;51.204;22.552;2023-07-29T08:16:33;7.43;;;6.70;;
42964;SDS011;28604;51.204;22.552;2023-07-29T08:18:59;5.90;;;5.40;;
42964;SDS011;28604;51.204;22.552;2023-07-29T08:21:26;5.50;;;5.00;;
42964;SDS011;28604;51.204;22.552;2023-07-29T08:23:52;5.13;;;4.78;;
42964;SDS011;28604;51.204;22.552;2023-07-29T08:26:18;4.55;;;4.15;;
42964;SDS011;28604;51.204;22.552;2023-07-29T08:28:44;6.00;;;5.30;;
42964;SDS011;28604;51.204;22.552;2023-07-29T08:31:10;4.70;;;4.35;;
42964;SDS011;28604;51.204;22.552;2023-07-29T08:33:36;4.82;;;4.43;;
42964;SDS011;28604;51.204;22.552;2023-07-29T08:36:02;4.32;;;4.03;;
42964;SDS011;28604;51.204;22.552;2023-07-29T08:38:28;4.18;;;3.95;;
42964;SDS011;28604;51.204;22.552;2023-07-29T08:41:10;4.70;;;4.35;;
42964;SDS011;28604;51.204;22.552;2023-07-29T08:43:39;4.70;;;4.40;;
42964;SDS011;28604;51.204;22.552;2023-07-29T08:46:16;6.95;;;5.65;;
42964;SDS011;28604;51.204;22.552;2023-07-29T08:48:42;5.53;;;4.88;;
42964;SDS011;28604;51.204;22.552;2023-07-29T08:51:09;4.45;;;4.15;;
42964;SDS011;28604;51.204;22.552;2023-07-29T08:53:36;4.45;;;4.20;;
42964;SDS011;28604;51.204;22.552;2023-07-29T08:56:03;5.78;;;4.30;;
42964;SDS011;28604;51.204;22.552;2023-07-29T08:58:30;6.22;;;4.00;;
42964;SDS011;28604;51.204;22.552;2023-07-29T09:00:59;4.45;;;4.00;;
42964;SDS011;28604;51.204;22.552;2023-07-29T09:03:25;4.25;;;3.80;;
42964;SDS011;28604;51.204;22.552;2023-07-29T09:05:51;3.80;;;3.50;;
42964;SDS011;28604;51.204;22.552;2023-07-29T09:08:19;7.72;;;3.65;;
42964;SDS011;28604;51.204;22.552;2023-07-29T09:10:46;2.92;;;2.88;;
42964;SDS011;28604;51.204;22.552;2023-07-29T09:13:12;3.38;;;3.13;;
42964;SDS011;28604;51.204;22.552;2023-07-29T09:15:38;4.38;;;3.25;;
42964;SDS011;28604;51.204;22.552;2023-07-29T09:20:37;3.22;;;3.00;;
42964;SDS011;28604;51.204;22.552;2023-07-29T09:23:03;2.53;;;2.42;;
42964;SDS011;28604;51.204;22.552;2023-07-29T09:25:33;3.28;;;2.55;;
42964;SDS011;28604;51.204;22.552;2023-07-29T09:27:59;3.20;;;2.17;;
42964;SDS011;28604;51.204;22.552;2023-07-29T09:30:26;2.92;;;2.22;;
42964;SDS011;28604;51.204;22.552;2023-07-29T09:32:56;3.05;;;2.95;;
42964;SDS011;28604;51.204;22.552;2023-07-29T09:35:22;1.90;;;1.90;;
42964;SDS011;28604;51.204;22.552;2023-07-29T09:37:49;3.05;;;2.63;;
42964;SDS011;28604;51.204;22.552;2023-07-29T09:40:17;1.88;;;1.88;;
42964;SDS011;28604;51.204;22.552;2023-07-29T09:42:53;3.30;;;2.33;;
42964;SDS011;28604;51.204;22.552;2023-07-29T09:45:23;3.35;;;2.33;;
42964;SDS011;28604;51.204;22.552;2023-07-29T09:47:51;3.90;;;2.40;;
42964;SDS011;28604;51.204;22.552;2023-07-29T09:50:25;1.67;;;1.65;;
42964;SDS011;28604;51.204;22.552;2023-07-29T09:52:52;2.45;;;2.20;;
42964;SDS011;28604;51.204;22.552;2023-07-29T09:55:22;1.65;;;1.58;;
42964;SDS011;28604;51.204;22.552;2023-07-29T09:57:53;1.70;;;1.60;;
42964;SDS011;28604;51.204;22.552;2023-07-29T10:00:23;1.67;;;1.58;;
42964;SDS011;28604;51.204;22.552;2023-07-29T10:02:49;1.77;;;1.70;;
42964;SDS011;28604;51.204;22.552;2023-07-29T10:05:16;1.67;;;1.67;;
42964;SDS011;28604;51.204;22.552;2023-07-29T10:07:42;1.92;;;1.63;;
42964;SDS011;28604;51.204;22.552;2023-07-29T10:10:08;1.90;;;1.80;;
42964;SDS011;28604;51.204;22.552;2023-07-29T10:12:34;1.58;;;1.58;;
42964;SDS011;28604;51.204;22.552;2023-07-29T10:15:04;2.08;;;2.08;;
42964;SDS011;28604;51.204;22.552;2023-07-29T10:17:35;2.08;;;1.90;;
42964;SDS011;28604;51.204;22.552;2023-07-29T10:20:14;1.52;;;1.42;;
42964;SDS011;28604;51.204;22.552;2023-07-29T10:22:41;1.45;;;1.45;;
42964;SDS011;28604;51.204;22.552;2023-07-29T10:25:09;1.88;;;1.75;;
42964;SDS011;28604;51.204;22.552;2023-07-29T10:27:44;1.83;;;1.80;;
42964;SDS011;28604;51.204;22.552;2023-07-29T10:30:14;1.98;;;1.88;;
42964;SDS011;28604;51.204;22.552;2023-07-29T10:32:42;1.55;;;1.55;;
42964;SDS011;28604;51.204;22.552;2023-07-29T10:35:10;1.75;;;1.65;;
42964;SDS011;28604;51.204;22.552;2023-07-29T10:37:37;1.90;;;1.90;;
42964;SDS011;28604;51.204;22.552;2023-07-29T10:40:08;1.42;;;1.40;;
42964;SDS011;28604;51.204;22.552;2023-07-29T10:42:36;2.05;;;1.13;;
42964;SDS011;28604;51.204;22.552;2023-07-29T10:45:22;1.70;;;1.60;;
42964;SDS011;28604;51.204;22.552;2023-07-29T10:47:48;1.35;;;1.30;;
42964;SDS011;28604;51.204;22.552;2023-07-29T10:50:19;2.28;;;1.08;;
42964;SDS011;28604;51.204;22.552;2023-07-29T10:52:52;0.98;;;0.98;;
42964;SDS011;28604;51.204;22.552;2023-07-29T10:55:34;1.10;;;1.10;;
42964;SDS011;28604;51.204;22.552;2023-07-29T10:58:13;1.50;;;1.50;;
42964;SDS011;28604;51.204;22.552;2023-07-29T11:00:43;1.00;;;1.00;;
42964;SDS011;28604;51.204;22.552;2023-07-29T11:03:10;5.78;;;1.05;;
42964;SDS011;28604;51.204;22.552;2023-07-29T11:05:48;1.40;;;1.40;;
42964;SDS011;28604;51.204;22.552;2023-07-29T11:08:16;0.73;;;0.73;;
42964;SDS011;28604;51.204;22.552;2023-07-29T11:13:28;2.28;;;0.50;;
42964;SDS011;28604;51.204;22.552;2023-07-29T11:15:55;0.82;;;0.82;;
42964;SDS011;28604;51.204;22.552;2023-07-29T11:18:25;1.65;;;1.02;;
42964;SDS011;28604;51.204;22.552;2023-07-29T11:20:59;0.95;;;0.95;;
42964;SDS011;28604;51.204;22.552;2023-07-29T11:23:29;1.85;;;0.93;;
42964;SDS011;28604;51.204;22.552;2023-07-29T11:26:01;2.83;;;0.90;;
42964;SDS011;28604;51.204;22.552;2023-07-29T11:28:27;0.40;;;0.40;;
42964;SDS011;28604;51.204;22.552;2023-07-29T11:30:57;3.60;;;0.50;;
42964;SDS011;28604;51.204;22.552;2023-07-29T11:33:27;0.35;;;0.30;;
42964;SDS011;28604;51.204;22.552;2023-07-29T11:35:54;0.40;;;0.25;;
42964;SDS011;28604;51.204;22.552;2023-07-29T11:38:20;0.77;;;0.50;;
42964;SDS011;28604;51.204;22.552;2023-07-29T11:52:17;3.40;;;0.40;;
42964;SDS011;28604;51.204;22.552;2023-07-29T11:54:46;0.90;;;0.40;;
42964;SDS011;28604;51.204;22.552;2023-07-29T11:57:13;1.65;;;0.25;;
42964;SDS011;28604;51.204;22.552;2023-07-29T11:59:40;0.57;;;0.40;;
42964;SDS011;28604;51.204;22.552;2023-07-29T12:02:15;0.13;;;0.13;;
42964;SDS011;28604;51.204;22.552;2023-07-29T12:04:43;0.20;;;0.20;;
42964;SDS011;28604;51.204;22.552;2023-07-29T12:07:11;0.25;;;0.25;;
42964;SDS011;28604;51.204;22.552;2023-07-29T12:09:39;0.20;;;0.20;;
42964;SDS011;28604;51.204;22.552;2023-07-29T12:12:06;1.35;;;0.25;;
42964;SDS011;28604;51.204;22.552;2023-07-29T12:14:33;0.40;;;0.20;;
42964;SDS011;28604;51.204;22.552;2023-07-29T12:17:03;0.15;;;0.10;;
42964;SDS011;28604;51.204;22.552;2023-07-29T12:19:34;0.98;;;0.50;;
42964;SDS011;28604;51.204;22.552;2023-07-29T12:22:02;2.90;;;0.22;;
42964;SDS011;28604;51.204;22.552;2023-07-29T12:24:29;1.85;;;1.83;;
42964;SDS011;28604;51.204;22.552;2023-07-29T12:26:56;0.20;;;0.20;;
42964;SDS011;28604;51.204;22.552;2023-07-29T12:29:23;0.30;;;0.13;;
42964;SDS011;28604;51.204;22.552;2023-07-29T12:31:49;1.17;;;0.40;;
42964;SDS011;28604;51.204;22.552;2023-07-29T12:34:27;1.17;;;0.32;;
42964;SDS011;28604;51.204;22.552;2023-07-29T12:36:54;1.05;;;0.30;;
42964;SDS011;28604;51.204;22.552;2023-07-29T12:39:22;0.47;;;0.20;;
42964;SDS011;28604;51.204;22.552;2023-07-29T12:41:50;0.35;;;0.10;;
42964;SDS011;28604;51.204;22.552;2023-07-29T12:44:17;0.10;;;0.10;;
42964;SDS011;28604;51.204;22.552;2023-07-29T12:46:44;0.10;;;0.10;;
42964;SDS011;28604;51.204;22.552;2023-07-29T12:49:10;1.75;;;0.22;;
42964;SDS011;28604;51.204;22.552;2023-07-29T12:51:36;1.13;;;0.10;;
42964;SDS011;28604;51.204;22.552;2023-07-29T12:54:03;0.17;;;0.17;;
42964;SDS011;28604;51.204;22.552;2023-07-29T12:56:30;0.15;;;0.15;;
42964;SDS011;28604;51.204;22.552;2023-07-29T12:58:58;0.65;;;0.65;;
42964;SDS011;28604;51.204;22.552;2023-07-29T13:01:25;0.30;;;0.20;;
42964;SDS011;28604;51.204;22.552;2023-07-29T13:03:51;1.10;;;0.30;;
42964;SDS011;28604;51.204;22.552;2023-07-29T13:06:17;0.40;;;0.20;;
42964;SDS011;28604;51.204;22.552;2023-07-29T13:08:44;0.30;;;0.30;;
42964;SDS011;28604;51.204;22.552;2023-07-29T13:11:10;3.50;;;0.10;;
42964;SDS011;28604;51.204;22.552;2023-07-29T13:13:36;0.13;;;0.13;;
42964;SDS011;28604;51.204;22.552;2023-07-29T13:16:02;2.00;;;0.20;;
42964;SDS011;28604;51.204;22.552;2023-07-29T13:18:28;0.65;;;0.20;;
42964;SDS011;28604;51.204;22.552;2023-07-29T13:20:54;2.10;;;0.10;;
42964;SDS011;28604;51.204;22.552;2023-07-29T13:23:21;0.20;;;0.20;;
42964;SDS011;28604;51.204;22.552;2023-07-29T13:25:47;0.20;;;0.20;;
42964;SDS011;28604;51.204;22.552;2023-07-29T13:28:13;1.80;;;0.20;;
42964;SDS011;28604;51.204;22.552;2023-07-29T13:30:39;2.15;;;0.30;;
42964;SDS011;28604;51.204;22.552;2023-07-29T13:33:06;1.65;;;0.20;;
42964;SDS011;28604;51.204;22.552;2023-07-29T13:35:32;0.52;;;0.38;;
42964;SDS011;28604;51.204;22.552;2023-07-29T13:37:58;0.65;;;0.30;;
42964;SDS011;28604;51.204;22.552;2023-07-29T13:40:25;0.55;;;0.20;;
42964;SDS011;28604;51.204;22.552;2023-07-29T13:42:51;0.30;;;0.30;;
42964;SDS011;28604;51.204;22.552;2023-07-29T13:45:17;3.72;;;0.50;;
42964;SDS011;28604;51.204;22.552;2023-07-29T13:47:44;4.05;;;1.08;;
42964;SDS011;28604;51.204;22.552;2023-07-29T13:50:09;0.90;;;0.40;;
42964;SDS011;28604;51.204;22.552;2023-07-29T13:52:37;0.50;;;0.30;;
42964;SDS011;28604;51.204;22.552;2023-07-29T13:55:04;1.13;;;0.20;;
42964;SDS011;28604;51.204;22.552;2023-07-29T13:57:31;0.32;;;0.32;;
42964;SDS011;28604;51.204;22.552;2023-07-29T13:59:57;0.55;;;0.30;;
42964;SDS011;28604;51.204;22.552;2023-07-29T14:02:23;0.40;;;0.32;;
42964;SDS011;28604;51.204;22.552;2023-07-29T14:04:51;0.40;;;0.40;;
42964;SDS011;28604;51.204;22.552;2023-07-29T14:07:18;0.57;;;0.57;;
42964;SDS011;28604;51.204;22.552;2023-07-29T14:09:43;0.65;;;0.50;;
42964;SDS011;28604;51.204;22.552;2023-07-29T14:12:09;1.85;;;0.30;;
42964;SDS011;28604;51.204;22.552;2023-07-29T14:14:40;0.82;;;0.30;;
42964;SDS011;28604;51.204;22.552;2023-07-29T14:17:06;0.35;;;0.35;;
42964;SDS011;28604;51.204;22.552;2023-07-29T14:19:34;2.65;;;0.70;;
42964;SDS011;28604;51.204;22.552;2023-07-29T14:22:00;0.30;;;0.30;;
42964;SDS011;28604;51.204;22.552;2023-07-29T14:24:26;0.98;;;0.55;;
42964;SDS011;28604;51.204;22.552;2023-07-29T14:26:52;0.68;;;0.50;;
42964;SDS011;28604;51.204;22.552;2023-07-29T14:29:17;0.77;;;0.65;;
42964;SDS011;28604;51.204;22.552;2023-07-29T14:31:43;0.68;;;0.68;;
42964;SDS011;28604;51.204;22.552;2023-07-29T14:34:09;0.73;;;0.70;;
42964;SDS011;28604;51.204;22.552;2023-07-29T14:36:36;2.97;;;0.45;;
42964;SDS011;28604;51.204;22.552;2023-07-29T14:39:02;2.10;;;0.43;;
42964;SDS011;28604;51.204;22.552;2023-07-29T14:41:28;1.88;;;0.60;;
42964;SDS011;28604;51.204;22.552;2023-07-29T14:43:55;1.92;;;0.35;;
42964;SDS011;28604;51.204;22.552;2023-07-29T14:46:21;0.57;;;0.50;;
42964;SDS011;28604;51.204;22.552;2023-07-29T14:48:46;1.05;;;0.38;;
42964;SDS011;28604;51.204;22.552;2023-07-29T14:51:13;1.75;;;0.77;;
42964;SDS011;28604;51.204;22.552;2023-07-29T14:53:39;0.57;;;0.57;;
42964;SDS011;28604;51.204;22.552;2023-07-29T14:56:05;0.40;;;0.40;;